createdAt,value
2022-08-20T00:00:36.335Z,16.50
2022-08-20T00:03:07.917Z,16.50
2022-08-20T00:05:42.865Z,16.50
2022-08-20T00:08:10.634Z,16.50
2022-08-20T00:10:40.886Z,16.40
2022-08-20T00:13:11.055Z,16.50
2022-08-20T00:15:42.261Z,16.60
2022-08-20T00:18:09.363Z,16.50
2022-08-20T00:20:44.010Z,16.50
2022-08-20T00:23:11.014Z,16.40
2022-08-20T00:25:38.415Z,16.40
2022-08-20T00:28:07.074Z,16.30
2022-08-20T00:30:36.449Z,16.30
2022-08-20T00:33:07.278Z,16.30
2022-08-20T00:35:36.917Z,16.30
2022-08-20T00:38:04.986Z,16.20
2022-08-20T00:40:37.464Z,16.20
2022-08-20T00:43:07.814Z,16.20
2022-08-20T00:45:36.344Z,16.20
2022-08-20T00:48:04.202Z,16.20
2022-08-20T00:50:37.197Z,16.30
2022-08-20T00:53:08.490Z,16.30
2022-08-20T00:55:36.945Z,16.30
2022-08-20T00:58:09.014Z,16.30
2022-08-20T01:00:42.851Z,16.40
2022-08-20T01:03:14.961Z,16.40
2022-08-20T01:05:47.997Z,16.40
2022-08-20T01:08:17.254Z,16.40
2022-08-20T01:10:48.814Z,16.40
2022-08-20T01:13:22.127Z,16.40
2022-08-20T01:15:51.676Z,16.40
2022-08-20T01:18:24.517Z,16.40
2022-08-20T01:21:01.018Z,16.30
2022-08-20T01:23:48.826Z,16.30
2022-08-20T01:26:23.844Z,16.30
2022-08-20T01:29:02.032Z,16.30
2022-08-20T01:31:32.941Z,16.20
2022-08-20T01:34:01.349Z,16.30
2022-08-20T01:36:45.970Z,16.30
2022-08-20T01:39:16.222Z,16.40
2022-08-20T01:41:59.806Z,16.50
2022-08-20T01:44:27.479Z,16.50
2022-08-20T01:46:57.593Z,16.60
2022-08-20T01:49:31.497Z,16.70
2022-08-20T01:52:01.934Z,16.60
2022-08-20T01:54:28.754Z,16.50
2022-08-20T01:56:57.752Z,16.50
2022-08-20T01:59:25.065Z,16.40
2022-08-20T02:01:53.019Z,16.30
2022-08-20T02:04:20.823Z,16.30
2022-08-20T02:06:56.628Z,16.30
2022-08-20T02:09:33.126Z,16.30
2022-08-20T02:12:00.909Z,16.40
2022-08-20T02:14:28.867Z,16.50
2022-08-20T02:16:58.653Z,16.60
2022-08-20T02:19:48.334Z,16.70
2022-08-20T02:22:24.270Z,16.70
2022-08-20T02:24:51.848Z,16.70
2022-08-20T02:27:19.143Z,16.70
2022-08-20T02:29:46.826Z,16.70
2022-08-20T02:32:25.030Z,16.80
2022-08-20T02:35:02.980Z,16.80
2022-08-20T02:37:29.886Z,16.80
2022-08-20T02:39:56.748Z,16.80
2022-08-20T02:42:23.884Z,16.70
2022-08-20T02:44:50.707Z,16.70
2022-08-20T02:47:17.540Z,16.70
2022-08-20T02:49:44.595Z,16.70
2022-08-20T02:52:11.542Z,16.70
2022-08-20T02:54:38.405Z,16.70
2022-08-20T02:57:05.697Z,16.60
2022-08-20T02:59:33.611Z,16.60
2022-08-20T03:02:01.341Z,16.60
2022-08-20T03:04:31.255Z,16.50
2022-08-20T03:06:59.455Z,16.40
2022-08-20T03:09:26.368Z,16.40
2022-08-20T03:11:54.398Z,16.40
2022-08-20T03:14:21.302Z,16.30
2022-08-20T03:16:48.139Z,16.20
2022-08-20T03:19:15.028Z,16.20
2022-08-20T03:21:42.186Z,16.10
2022-08-20T03:24:09.480Z,16.10
2022-08-20T03:26:37.230Z,16.10
2022-08-20T03:29:04.691Z,16.10
2022-08-20T03:31:31.582Z,16.10
2022-08-20T03:33:58.394Z,16.10
2022-08-20T03:36:28.102Z,16.00
2022-08-20T03:38:57.962Z,16.00
2022-08-20T03:41:25.144Z,16.00
2022-08-20T03:43:53.182Z,16.00
2022-08-20T03:46:23.160Z,15.90
2022-08-20T03:48:56.657Z,15.80
2022-08-20T03:51:30.886Z,15.70
2022-08-20T03:53:58.058Z,15.70
2022-08-20T03:56:25.477Z,15.70
2022-08-20T03:58:52.925Z,15.80
2022-08-20T04:01:44.228Z,15.70
2022-08-20T04:04:06.609Z,15.70
2022-08-20T04:06:40.059Z,15.70
2022-08-20T04:09:09.439Z,15.70
2022-08-20T04:11:37.614Z,15.70
2022-08-20T04:14:04.802Z,15.80
2022-08-20T04:16:33.462Z,15.80
2022-08-20T04:19:02.446Z,15.80
2022-08-20T04:21:34.233Z,15.70
2022-08-20T04:24:03.311Z,15.70
2022-08-20T04:26:31.719Z,15.80
2022-08-20T04:28:58.575Z,15.70
2022-08-20T04:31:25.721Z,15.70
2022-08-20T04:33:52.699Z,15.70
2022-08-20T04:36:19.542Z,15.80
2022-08-20T04:38:49.421Z,15.90
2022-08-20T04:41:23.011Z,15.90
2022-08-20T04:43:51.993Z,15.90
2022-08-20T04:46:19.475Z,15.90
2022-08-20T04:48:48.997Z,15.90
2022-08-20T04:51:18.337Z,15.90
2022-08-20T04:53:52.136Z,15.90
2022-08-20T04:56:23.888Z,15.90
2022-08-20T04:58:52.476Z,16.00
2022-08-20T05:01:19.653Z,16.10
2022-08-20T05:03:49.417Z,16.20
2022-08-20T05:06:17.701Z,16.30
2022-08-20T05:08:44.814Z,16.40
2022-08-20T05:11:34.539Z,16.50
2022-08-20T05:13:58.775Z,16.50
2022-08-20T05:16:25.846Z,16.60
2022-08-20T05:18:53.137Z,16.60
2022-08-20T05:21:20.853Z,16.60
2022-08-20T05:23:49.297Z,16.60
2022-08-20T05:26:20.144Z,16.60
2022-08-20T05:28:58.159Z,16.70
2022-08-20T05:31:32.025Z,16.70
2022-08-20T05:34:01.299Z,16.80
2022-08-20T05:36:28.246Z,17.00
2022-08-20T05:38:55.052Z,17.10
2022-08-20T05:41:29.455Z,17.10
2022-08-20T05:44:01.283Z,17.30
2022-08-20T05:46:31.129Z,17.50
2022-08-20T05:49:00.043Z,17.50
2022-08-20T05:51:28.310Z,17.50
2022-08-20T05:53:59.222Z,17.60
2022-08-20T05:56:30.475Z,17.50
2022-08-20T05:58:59.521Z,17.50
2022-08-20T06:01:26.386Z,17.50
2022-08-20T06:04:12.022Z,17.50
2022-08-20T06:06:45.509Z,17.60
2022-08-20T06:09:31.185Z,17.70
2022-08-20T06:12:06.068Z,17.70
2022-08-20T06:14:33.539Z,17.70
2022-08-20T06:17:07.566Z,17.80
2022-08-20T06:19:36.059Z,17.90
2022-08-20T06:22:17.732Z,18.00
2022-08-20T06:24:50.268Z,18.20
2022-08-20T06:27:17.449Z,18.30
2022-08-20T06:29:44.330Z,18.50
2022-08-20T06:32:11.737Z,18.60
2022-08-20T06:34:50.310Z,18.70
2022-08-20T06:37:31.324Z,18.80
2022-08-20T06:40:14.094Z,19.00
2022-08-20T06:42:48.049Z,19.20
2022-08-20T06:45:18.570Z,19.30
2022-08-20T06:47:47.019Z,19.40
2022-08-20T06:50:19.490Z,19.50
2022-08-20T06:52:52.892Z,19.70
2022-08-20T06:55:21.237Z,19.80
2022-08-20T06:57:55.690Z,19.90
2022-08-20T07:00:22.522Z,20.10
2022-08-20T07:02:49.436Z,20.20
2022-08-20T07:05:16.825Z,20.40
2022-08-20T07:07:49.628Z,20.70
2022-08-20T07:10:17.963Z,20.90
2022-08-20T07:12:46.908Z,21.00
2022-08-20T07:15:15.192Z,21.20
2022-08-20T07:17:42.090Z,21.40
2022-08-20T07:20:15.211Z,21.70
2022-08-20T07:22:43.433Z,21.80
2022-08-20T07:25:14.351Z,22.00
2022-08-20T07:27:42.086Z,22.20
2022-08-20T07:30:31.452Z,22.30
2022-08-20T07:32:58.676Z,22.40
2022-08-20T07:35:27.326Z,22.70
2022-08-20T07:37:54.937Z,23.00
2022-08-20T07:40:30.025Z,23.40
2022-08-20T07:42:58.742Z,23.50
2022-08-20T07:45:25.853Z,23.70
2022-08-20T07:47:55.995Z,24.10
2022-08-20T07:50:25.326Z,24.60
2022-08-20T07:52:53.069Z,24.90
2022-08-20T07:55:21.223Z,25.00
2022-08-20T07:57:50.203Z,25.00
2022-08-20T08:00:22.524Z,25.00
2022-08-20T08:02:49.481Z,25.20
2022-08-20T08:05:18.346Z,25.30
2022-08-20T08:07:46.407Z,25.50
2022-08-20T08:10:22.060Z,25.60
2022-08-20T08:12:53.245Z,25.80
2022-08-20T08:15:28.842Z,25.70
2022-08-20T08:18:07.879Z,25.80
2022-08-20T08:20:46.784Z,25.50
2022-08-20T08:23:31.651Z,25.60
2022-08-20T08:25:59.790Z,25.50
2022-08-20T08:28:29.620Z,24.90
2022-08-20T08:30:57.078Z,25.10
2022-08-20T08:33:27.787Z,24.90
2022-08-20T08:35:56.042Z,25.00
2022-08-20T08:38:24.138Z,25.00
2022-08-20T08:40:59.166Z,24.90
2022-08-20T08:43:31.857Z,24.80
2022-08-20T08:46:05.787Z,24.70
2022-08-20T08:48:43.458Z,25.00
2022-08-20T08:51:13.431Z,25.20
2022-08-20T08:53:46.155Z,24.90
2022-08-20T08:56:15.068Z,24.90
2022-08-20T08:58:44.605Z,24.90
2022-08-20T09:01:55.696Z,24.90
2022-08-20T09:04:03.139Z,24.70
2022-08-20T09:06:30.947Z,24.80
2022-08-20T09:09:02.957Z,24.60
2022-08-20T09:11:30.899Z,24.50
2022-08-20T09:13:58.580Z,24.70
2022-08-20T09:16:26.065Z,25.00
2022-08-20T09:18:56.849Z,25.30
2022-08-20T09:21:23.657Z,25.30
2022-08-20T09:23:50.571Z,25.60
2022-08-20T09:26:17.413Z,25.10
2022-08-20T09:28:44.225Z,24.90
2022-08-20T09:31:18.396Z,24.70
2022-08-20T09:33:45.203Z,24.60
2022-08-20T09:36:31.884Z,24.30
2022-08-20T09:38:58.907Z,24.50
2022-08-20T09:41:25.749Z,24.50
2022-08-20T09:43:52.589Z,24.40
2022-08-20T09:46:19.425Z,24.30
2022-08-20T09:48:53.734Z,24.40
2022-08-20T09:51:20.551Z,24.70
2022-08-20T09:53:48.880Z,25.00
2022-08-20T09:56:16.156Z,24.80
2022-08-20T09:58:53.369Z,25.00
2022-08-20T10:01:22.488Z,25.10
2022-08-20T10:03:50.476Z,25.30
2022-08-20T10:06:20.082Z,25.20
2022-08-20T10:08:47.706Z,25.50
2022-08-20T10:11:14.698Z,25.70
2022-08-20T10:13:41.642Z,25.50
2022-08-20T10:16:08.490Z,25.60
2022-08-20T10:18:36.448Z,25.40
2022-08-20T10:21:03.490Z,25.40
2022-08-20T10:23:30.350Z,25.00
2022-08-20T10:25:57.157Z,25.20
2022-08-20T10:28:23.981Z,24.70
2022-08-20T10:30:50.821Z,24.50
2022-08-20T10:33:17.614Z,24.30
2022-08-20T10:35:44.415Z,24.30
2022-08-20T10:38:11.235Z,24.10
2022-08-20T10:40:38.074Z,23.90
2022-08-20T10:43:05.138Z,23.80
2022-08-20T10:45:31.961Z,23.60
2022-08-20T10:48:02.030Z,23.40
2022-08-20T10:50:30.181Z,23.30
2022-08-20T10:52:57.463Z,23.10
2022-08-20T10:55:24.287Z,22.90
2022-08-20T10:57:51.109Z,22.80
2022-08-20T11:00:19.050Z,22.80
2022-08-20T11:02:46.126Z,22.70
2022-08-20T11:05:13.058Z,22.60
2022-08-20T11:07:59.842Z,22.60
2022-08-20T11:10:29.319Z,22.80
2022-08-20T11:12:56.517Z,22.90
2022-08-20T11:15:23.647Z,23.20
2022-08-20T11:17:50.849Z,23.40
2022-08-20T11:20:20.016Z,23.70
2022-08-20T11:22:47.273Z,23.90
2022-08-20T11:25:14.723Z,24.30
2022-08-20T11:27:46.309Z,24.60
2022-08-20T11:30:21.703Z,25.10
2022-08-20T11:32:48.508Z,25.60
2022-08-20T11:35:41.228Z,25.80
2022-08-20T11:38:02.909Z,26.30
2022-08-20T11:40:31.502Z,26.50
2022-08-20T11:43:14.311Z,26.50
2022-08-20T11:45:42.750Z,26.40
2022-08-20T11:48:09.673Z,26.20
2022-08-20T11:50:36.509Z,26.10
2022-08-20T11:53:03.318Z,26.20
2022-08-20T11:55:31.126Z,26.40
2022-08-20T11:57:59.826Z,26.60
2022-08-20T12:00:33.127Z,26.70
2022-08-20T12:03:01.792Z,26.70
2022-08-20T12:05:30.200Z,26.80
2022-08-20T12:08:00.112Z,26.60
2022-08-20T12:10:28.146Z,26.90
2022-08-20T12:12:55.920Z,26.80
2022-08-20T12:15:24.257Z,26.90
2022-08-20T12:17:51.253Z,26.50
2022-08-20T12:20:18.238Z,26.30
2022-08-20T12:22:45.128Z,26.20
2022-08-20T12:25:13.200Z,25.90
2022-08-20T12:27:40.441Z,25.70
2022-08-20T12:30:20.126Z,25.90
2022-08-20T12:32:47.349Z,26.10
2022-08-20T12:35:15.889Z,26.10
2022-08-20T12:37:43.922Z,26.30
2022-08-20T12:40:14.906Z,25.90
2022-08-20T12:42:42.315Z,26.40
2022-08-20T12:45:09.992Z,26.70
2022-08-20T12:47:39.441Z,26.80
2022-08-20T12:50:18.293Z,26.80
2022-08-20T12:52:45.894Z,26.50
2022-08-20T12:55:15.766Z,26.40
2022-08-20T12:57:49.830Z,26.50
2022-08-20T13:00:20.801Z,26.70
2022-08-20T13:02:49.023Z,27.10
2022-08-20T13:05:17.017Z,26.80
2022-08-20T13:07:45.064Z,26.90
2022-08-20T13:10:17.918Z,26.80
2022-08-20T13:12:44.736Z,26.60
2022-08-20T13:15:11.859Z,26.60
2022-08-20T13:17:39.682Z,26.40
2022-08-20T13:20:12.798Z,26.30
2022-08-20T13:22:41.602Z,26.50
2022-08-20T13:25:09.434Z,26.60
2022-08-20T13:27:39.411Z,26.50
2022-08-20T13:30:08.044Z,26.50
2022-08-20T13:32:34.935Z,26.30
2022-08-20T13:35:01.789Z,26.20
2022-08-20T13:37:29.669Z,26.20
2022-08-20T13:39:57.752Z,26.10
2022-08-20T13:42:25.238Z,26.30
2022-08-20T13:44:52.490Z,26.40
2022-08-20T13:47:32.404Z,26.10
2022-08-20T13:50:05.373Z,26.00
2022-08-20T13:52:32.949Z,25.90
2022-08-20T13:55:03.060Z,26.10
2022-08-20T13:57:33.820Z,25.70
2022-08-20T14:00:00.913Z,25.40
2022-08-20T14:02:28.279Z,25.40
2022-08-20T14:04:55.334Z,25.20
2022-08-20T14:07:30.194Z,25.00
2022-08-20T14:10:02.367Z,25.20
2022-08-20T14:12:30.597Z,25.40
2022-08-20T14:14:58.171Z,25.70
2022-08-20T14:17:29.835Z,25.70
2022-08-20T14:20:01.711Z,25.70
2022-08-20T14:22:29.431Z,25.70
2022-08-20T14:24:56.722Z,26.00
2022-08-20T14:27:27.733Z,26.00
2022-08-20T14:29:56.100Z,25.80
2022-08-20T14:32:23.036Z,25.10
2022-08-20T14:34:49.928Z,25.60
2022-08-20T14:37:19.566Z,26.00
2022-08-20T14:39:49.998Z,26.20
2022-08-20T14:42:17.023Z,26.20
2022-08-20T14:44:44.474Z,26.10
2022-08-20T14:47:29.857Z,25.90
2022-08-20T14:50:02.242Z,25.40
2022-08-20T14:52:29.967Z,25.10
2022-08-20T14:54:57.266Z,24.60
2022-08-20T14:57:24.330Z,24.20
2022-08-20T14:59:53.118Z,24.30
2022-08-20T15:02:20.307Z,24.20
2022-08-20T15:04:52.252Z,24.10
2022-08-20T15:07:31.103Z,23.90
2022-08-20T15:10:00.535Z,23.90
2022-08-20T15:12:28.372Z,23.70
2022-08-20T15:14:55.278Z,23.60
2022-08-20T15:17:25.420Z,23.40
2022-08-20T15:19:53.189Z,23.40
2022-08-20T15:22:21.523Z,23.40
2022-08-20T15:24:49.166Z,23.40
2022-08-20T15:27:22.859Z,23.20
2022-08-20T15:29:51.049Z,23.10
2022-08-20T15:32:18.748Z,23.10
2022-08-20T15:34:46.211Z,22.90
2022-08-20T15:37:19.485Z,22.90
2022-08-20T15:39:47.453Z,22.90
2022-08-20T15:42:15.140Z,22.80
2022-08-20T15:44:43.603Z,22.90
2022-08-20T15:47:16.570Z,22.90
2022-08-20T15:49:44.588Z,22.80
2022-08-20T15:52:12.089Z,22.80
2022-08-20T15:54:39.770Z,22.70
2022-08-20T15:57:14.267Z,22.70
2022-08-20T16:00:06.847Z,22.60
2022-08-20T16:02:58.723Z,22.50
2022-08-20T16:05:42.599Z,22.40
2022-08-20T16:08:22.006Z,22.30
2022-08-20T16:10:51.634Z,22.30
2022-08-20T16:13:38.113Z,22.20
2022-08-20T16:16:14.164Z,22.20
2022-08-20T16:18:41.344Z,22.20
2022-08-20T16:21:15.266Z,22.20
2022-08-20T16:23:43.866Z,22.20
2022-08-20T16:26:25.875Z,22.20
2022-08-20T16:29:11.338Z,22.20
2022-08-20T16:31:48.818Z,22.20
2022-08-20T16:34:41.772Z,22.10
2022-08-20T16:37:17.808Z,22.20
2022-08-20T16:40:08.907Z,22.10
2022-08-20T16:42:41.611Z,22.10
2022-08-20T16:45:14.179Z,22.10
2022-08-20T16:47:41.281Z,22.20
2022-08-20T16:50:23.928Z,22.20
2022-08-20T16:52:54.175Z,22.70
2022-08-20T16:55:23.530Z,24.00
2022-08-20T16:57:52.860Z,24.10
2022-08-20T17:00:35.093Z,23.90
2022-08-20T17:03:09.542Z,23.70
2022-08-20T17:05:47.252Z,23.50
2022-08-20T17:08:33.636Z,23.20
2022-08-20T17:11:21.890Z,23.00
2022-08-20T17:13:49.127Z,22.80
2022-08-20T17:16:15.975Z,22.60
2022-08-20T17:18:54.126Z,22.40
2022-08-20T17:21:30.385Z,22.20
2022-08-20T17:24:01.166Z,22.20
2022-08-20T17:26:32.911Z,22.10
2022-08-20T17:29:10.594Z,22.00
2022-08-20T17:31:41.823Z,21.90
2022-08-20T17:34:43.346Z,21.80
2022-08-20T17:37:21.270Z,21.80
2022-08-20T17:39:51.676Z,21.70
2022-08-20T17:42:25.540Z,21.60
2022-08-20T17:45:08.082Z,21.60
2022-08-20T17:47:37.767Z,21.50
2022-08-20T17:50:17.287Z,21.40
2022-08-20T17:52:49.875Z,21.30
2022-08-20T17:55:18.674Z,21.30
2022-08-20T17:57:54.453Z,21.20
2022-08-20T18:00:25.494Z,21.10
2022-08-20T18:03:04.983Z,21.00
2022-08-20T18:05:36.193Z,20.90
2022-08-20T18:08:49.745Z,20.80
2022-08-20T18:11:44.688Z,20.70
2022-08-20T18:14:24.110Z,20.70
2022-08-20T18:17:17.825Z,20.50
2022-08-20T18:20:16.931Z,20.40
2022-08-20T18:23:06.383Z,20.30
2022-08-20T18:25:38.719Z,20.20
2022-08-20T18:28:14.450Z,20.20
2022-08-20T18:30:57.251Z,20.10
2022-08-20T18:33:32.068Z,20.00
2022-08-20T18:36:20.657Z,19.90
2022-08-20T18:39:10.347Z,19.70
2022-08-20T18:41:54.691Z,19.70
2022-08-20T18:44:44.567Z,19.60
2022-08-20T18:47:23.263Z,19.50
2022-08-20T18:50:06.469Z,19.50
2022-08-20T18:52:50.078Z,19.50
2022-08-20T18:55:36.968Z,19.40
2022-08-20T18:58:07.530Z,19.40
2022-08-20T19:00:49.676Z,19.40
2022-08-20T19:03:31.345Z,19.40
2022-08-20T19:06:13.572Z,19.40
2022-08-20T19:09:01.207Z,19.40
2022-08-20T19:12:06.983Z,19.40
2022-08-20T19:14:58.238Z,19.40
2022-08-20T19:18:05.622Z,19.30
2022-08-20T19:20:35.671Z,19.30
2022-08-20T19:23:14.324Z,19.30
2022-08-20T19:26:04.254Z,19.30
2022-08-20T19:28:35.954Z,19.30
2022-08-20T19:31:10.340Z,19.40
2022-08-20T19:33:44.481Z,19.60
2022-08-20T19:36:27.603Z,19.60
2022-08-20T19:38:59.088Z,19.50
2022-08-20T19:41:50.811Z,19.60
2022-08-20T19:44:39.811Z,19.50
2022-08-20T19:47:17.942Z,19.40
2022-08-20T19:49:53.027Z,19.40
2022-08-20T19:52:28.723Z,19.40
2022-08-20T19:55:01.454Z,19.40
2022-08-20T19:57:30.811Z,19.30
2022-08-20T20:00:07.922Z,19.30
2022-08-20T20:02:35.033Z,19.20
2022-08-20T20:05:09.402Z,19.20
2022-08-20T20:07:36.322Z,19.20
2022-08-20T20:10:06.203Z,19.20
2022-08-20T20:12:34.539Z,19.10
2022-08-20T20:15:02.889Z,19.20
2022-08-20T20:17:34.673Z,19.30
2022-08-20T20:20:24.131Z,19.30
2022-08-20T20:23:00.974Z,19.40
2022-08-20T20:25:33.822Z,19.30
2022-08-20T20:28:19.481Z,19.30
2022-08-20T20:30:47.366Z,19.30
2022-08-20T20:33:23.867Z,19.40
2022-08-20T20:36:06.578Z,19.50
2022-08-20T20:38:34.467Z,19.60
2022-08-20T20:41:04.127Z,19.60
2022-08-20T20:43:37.558Z,19.70
2022-08-20T20:46:19.922Z,19.70
2022-08-20T20:48:51.210Z,19.70
2022-08-20T20:51:33.823Z,19.70
2022-08-20T20:54:04.562Z,19.70
2022-08-20T20:56:41.255Z,19.60
2022-08-20T20:59:10.553Z,19.60
2022-08-20T21:01:49.087Z,19.60
2022-08-20T21:04:22.720Z,19.60
2022-08-20T21:06:54.550Z,19.50
2022-08-20T21:09:22.856Z,19.60
2022-08-20T21:11:50.086Z,19.60
2022-08-20T21:14:17.535Z,19.60
2022-08-20T21:16:45.353Z,19.50
2022-08-20T21:19:13.211Z,19.50
2022-08-20T21:21:41.194Z,19.50
2022-08-20T21:24:08.639Z,19.50
2022-08-20T21:26:36.455Z,19.50
2022-08-20T21:29:05.311Z,19.50
2022-08-20T21:31:35.983Z,19.40
2022-08-20T21:34:03.333Z,19.40
2022-08-20T21:36:30.231Z,19.40
2022-08-20T21:38:57.402Z,19.40
2022-08-20T21:41:25.130Z,19.50
2022-08-20T21:43:57.955Z,19.50
2022-08-20T21:46:26.016Z,19.50
2022-08-20T21:48:52.898Z,19.60
2022-08-20T21:51:19.790Z,19.60
2022-08-20T21:53:46.971Z,19.50
2022-08-20T21:56:13.831Z,19.50
2022-08-20T21:58:40.806Z,19.50
2022-08-20T22:01:14.942Z,19.70
2022-08-20T22:03:42.932Z,19.80
2022-08-20T22:06:12.839Z,19.80
2022-08-20T22:08:39.808Z,19.80
2022-08-20T22:11:09.429Z,19.80
2022-08-20T22:13:37.184Z,19.80
2022-08-20T22:16:07.853Z,19.80
2022-08-20T22:18:35.810Z,19.70
2022-08-20T22:21:03.510Z,19.70
2022-08-20T22:23:30.429Z,19.70
2022-08-20T22:25:57.339Z,19.70
2022-08-20T22:28:24.570Z,19.60
2022-08-20T22:30:51.486Z,19.60
2022-08-20T22:33:23.159Z,19.50
2022-08-20T22:35:52.519Z,19.50
2022-08-20T22:38:20.184Z,19.50
2022-08-20T22:40:47.244Z,19.50
2022-08-20T22:43:14.775Z,19.50
2022-08-20T22:45:45.665Z,19.50
2022-08-20T22:48:15.834Z,19.50
2022-08-20T22:50:43.195Z,19.50
2022-08-20T22:53:11.155Z,19.50
2022-08-20T22:55:38.614Z,19.50
2022-08-20T22:58:06.503Z,19.40
2022-08-20T23:00:34.361Z,19.40
2022-08-20T23:03:02.257Z,19.40
2022-08-20T23:05:33.012Z,19.40
2022-08-20T23:08:00.878Z,19.30
2022-08-20T23:10:30.458Z,19.30
2022-08-20T23:12:57.605Z,19.30
2022-08-20T23:15:28.977Z,19.20
2022-08-20T23:18:01.068Z,19.20
2022-08-20T23:20:27.991Z,19.10
2022-08-20T23:22:55.760Z,19.10
2022-08-20T23:25:23.111Z,19.10
2022-08-20T23:27:55.276Z,19.10
2022-08-20T23:30:23.615Z,19.10
2022-08-20T23:32:51.148Z,19.10
2022-08-20T23:35:18.636Z,19.10
2022-08-20T23:37:52.649Z,19.00
2022-08-20T23:40:28.106Z,19.00
2022-08-20T23:42:56.461Z,19.10
2022-08-20T23:45:23.727Z,19.20
2022-08-20T23:47:50.911Z,19.20
2022-08-20T23:50:21.073Z,19.10
2022-08-20T23:52:51.295Z,19.20
2022-08-20T23:55:18.811Z,19.10
2022-08-20T23:57:45.721Z,19.20
